Time;durP1;ratioP1;P1;durP2;ratioP2;P2;SDS_P1;SDS_P2;PMS_P1;PMS_P2;Temp;Humidity;BMP_temperature;BMP_pressure;BME280_temperature;BME280_humidity;BME280_pressure;Samples;Min_cycle;Max_cycle;Signal;HPM_P1;HPM_P2
2022/06/23 00:01:54;;;;;;;5.38;3.70;;;;;;;20.98;43.96;101079.75;4969197;28;20038;-66
2022/06/23 00:04:23;;;;;;;4.63;3.85;;;;;;;21.02;44.29;101079.97;4961530;28;21882;-66
2022/06/23 00:06:55;;;;;;;8.38;3.90;;;;;;;20.99;43.96;101078.63;4953833;28;20019;-66
2022/06/23 00:09:37;;;;;;;7.53;4.40;;;;;;;20.96;44.08;101078.41;4965362;28;20047;-66
2022/06/23 00:12:27;;;;;;;6.65;4.13;;;;;;;20.99;44.30;101074.97;4956697;28;20031;-66
2022/06/23 00:15:01;;;;;;;6.30;4.20;;;;;;;20.87;44.87;101071.84;4971864;28;20363;-67
2022/06/23 00:17:28;;;;;;;7.15;4.65;;;;;;;20.79;45.19;101068.66;4969274;28;20122;-66
2022/06/23 00:19:56;;;;;;;8.20;4.30;;;;;;;20.82;45.44;101065.16;4971663;28;20554;-66
2022/06/23 00:22:25;;;;;;;10.43;4.75;;;;;;;20.77;45.88;101068.13;4959471;28;20040;-66
2022/06/23 00:24:55;;;;;;;6.60;4.20;;;;;;;20.73;45.97;101072.72;4969886;28;20510;-66
2022/06/23 00:27:26;;;;;;;7.43;4.07;;;;;;;20.70;46.36;101076.16;4964931;28;20444;-66
2022/06/23 00:29:52;;;;;;;8.73;4.43;;;;;;;20.68;46.58;101067.19;4972406;28;20718;-66
2022/06/23 00:32:18;;;;;;;7.80;4.20;;;;;;;20.66;46.84;101066.66;4969052;28;20058;-66
2022/06/23 00:34:52;;;;;;;7.75;4.50;;;;;;;20.58;47.07;101073.88;4971745;28;20065;-66
2022/06/23 00:37:19;;;;;;;7.97;5.13;;;;;;;20.54;47.21;101080.47;4972378;28;20041;-66
2022/06/23 00:40:06;;;;;;;9.68;4.75;;;;;;;20.55;47.11;101083.00;4971921;28;20031;-66
2022/06/23 00:42:40;;;;;;;7.30;4.65;;;;;;;20.47;47.69;101080.84;4961127;28;20057;-66
2022/06/23 00:45:11;;;;;;;8.85;5.28;;;;;;;20.45;48.10;101071.06;4958445;28;20510;-65
2022/06/23 00:47:59;;;;;;;8.35;4.95;;;;;;;20.49;47.37;101077.78;4962267;28;20074;-67
2022/06/23 00:50:29;;;;;;;10.23;5.75;;;;;;;20.34;48.46;101070.44;4964940;28;20166;-65
2022/06/23 00:53:04;;;;;;;11.13;5.90;;;;;;;20.35;48.39;101072.94;4963906;28;20513;-66
2022/06/23 00:55:44;;;;;;;9.63;5.47;;;;;;;20.38;48.25;101060.19;4975723;28;20041;-65
2022/06/23 00:58:23;;;;;;;7.28;5.65;;;;;;;20.37;48.54;101050.06;4952435;28;20390;-65
2022/06/23 01:00:52;;;;;;;7.57;5.78;;;;;;;20.41;48.81;101053.09;4958709;28;20372;-65
2022/06/23 01:03:24;;;;;;;9.55;5.70;;;;;;;20.29;49.77;101062.09;4958172;28;20402;-65
2022/06/23 01:05:56;;;;;;;;;;;;;;;20.57;47.18;101051.66;4974962;28;20398;-65
2022/06/23 01:08:44;;;;;;;7.45;6.20;;;;;;;20.35;49.75;101055.19;4971860;28;19993;-66
2022/06/23 01:11:12;;;;;;;9.43;6.63;;;;;;;20.27;49.95;101056.75;4975187;28;20034;-65
2022/06/23 01:13:47;;;;;;;11.05;6.25;;;;;;;20.28;50.12;101049.16;4975571;28;20589;-65
2022/06/23 01:16:14;;;;;;;10.68;6.57;;;;;;;20.29;50.28;101048.81;4975662;28;20037;-65
2022/06/23 01:18:58;;;;;;;9.65;6.63;;;;;;;20.31;50.07;101054.13;4973046;28;20030;-66
2022/06/23 01:21:28;;;;;;;9.73;6.43;;;;;;;20.20;50.89;101049.84;4959942;28;20118;-66
2022/06/23 01:24:00;;;;;;;10.40;6.50;;;;;;;20.16;50.95;101055.31;4954775;28;20054;-65
2022/06/23 01:26:48;;;;;;;9.75;6.50;;;;;;;20.23;50.48;101057.69;4963420;28;20031;-65
2022/06/23 01:29:37;;;;;;;7.88;6.35;;;;;;;20.10;50.89;101046.09;4972660;28;20597;-66
2022/06/23 01:32:16;;;;;;;9.98;6.60;;;;;;;20.03;51.65;101054.13;4942458;28;20042;-65
2022/06/23 01:34:50;;;;;;;9.50;6.20;;;;;;;20.02;51.52;101052.47;4962934;28;20098;-65
2022/06/23 01:37:24;;;;;;;9.18;6.07;;;;;;;19.96;52.05;101055.69;4969633;28;20038;-66
2022/06/23 01:40:06;;;;;;;10.00;7.15;;;;;;;19.93;52.13;101054.34;4956011;28;20027;-66
2022/06/23 01:42:50;;;;;;;13.35;6.70;;;;;;;19.96;52.12;101053.72;4964030;28;20435;-66
2022/06/23 01:46:01;;;;;;;11.80;6.93;;;;;;;19.93;52.41;101053.53;4973695;28;20110;-66
2022/06/23 01:48:51;;;;;;;11.52;6.63;;;;;;;19.92;51.88;101055.47;4873317;29;20401;-65
2022/06/23 01:51:22;;;;;;;10.25;6.82;;;;;;;19.80;53.26;101058.78;4962470;28;20049;-65
2022/06/23 01:53:49;;;;;;;8.93;6.55;;;;;;;19.79;53.42;101062.78;4985677;28;20035;-66
2022/06/23 01:56:20;;;;;;;10.07;7.18;;;;;;;19.77;53.62;101061.44;4994331;28;20046;-66
2022/06/23 01:58:59;;;;;;;13.35;7.10;;;;;;;19.69;53.76;101054.53;4989951;28;20025;-66
2022/06/23 02:01:31;;;;;;;13.50;7.15;;;;;;;19.73;53.87;101047.13;4984735;28;20049;-66
2022/06/23 02:04:07;;;;;;;11.80;7.07;;;;;;;19.79;53.94;101047.84;4978162;28;20030;-65
2022/06/23 02:06:51;;;;;;;10.23;7.32;;;;;;;19.78;53.36;101049.00;4987808;28;20038;-65
2022/06/23 02:09:21;;;;;;;11.10;7.32;;;;;;;19.78;54.10;101054.63;4980692;28;20031;-65
2022/06/23 02:11:49;;;;;;;10.63;7.32;;;;;;;19.73;54.50;101044.31;4974116;28;20059;-65
2022/06/23 02:14:19;;;;;;;10.70;7.40;;;;;;;19.67;54.53;101039.06;4979630;28;20022;-65
2022/06/23 02:16:56;;;;;;;13.48;7.82;;;;;;;19.67;54.62;101037.09;4993896;28;20389;-65
2022/06/23 02:19:39;;;;;;;12.48;8.25;;;;;;;19.66;54.67;101040.22;4994222;28;20077;-65
2022/06/23 02:22:16;;;;;;;16.67;8.13;;;;;;;19.68;54.60;101044.38;4974559;28;20049;-65
2022/06/23 02:25:03;;;;;;;12.90;8.48;;;;;;;19.63;54.12;101035.22;4992014;28;20037;-65
2022/06/23 02:27:31;;;;;;;11.40;8.15;;;;;;;19.64;55.02;101028.44;4992940;28;20034;-65
2022/06/23 02:30:17;;;;;;;11.00;8.10;;;;;;;19.61;54.99;101038.31;4991336;28;20034;-66
2022/06/23 02:33:01;;;;;;;10.48;8.25;;;;;;;19.66;54.19;101037.41;4983780;28;20031;-66
2022/06/23 02:35:31;;;;;;;10.05;8.18;;;;;;;19.63;54.93;101038.03;4992902;28;20371;-66
2022/06/23 02:38:02;;;;;;;14.25;8.23;;;;;;;19.60;55.34;101033.81;4961513;28;20022;-66
2022/06/23 02:40:32;;;;;;;12.77;8.05;;;;;;;19.64;54.99;101037.69;4986523;28;20023;-65
2022/06/23 02:43:28;;;;;;;10.05;8.50;;;;;;;19.65;54.70;101042.22;4982763;28;20042;-65
2022/06/23 02:46:18;;;;;;;10.50;8.55;;;;;;;19.63;54.75;101047.31;4992679;28;20030;-66
2022/06/23 02:49:04;;;;;;;10.30;8.05;;;;;;;19.51;55.31;101041.31;4982771;28;20026;-66
2022/06/23 02:51:44;;;;;;;15.45;8.68;;;;;;;19.52;55.66;101038.16;4989092;28;20049;-66
2022/06/23 02:54:30;;;;;;;10.80;8.40;;;;;;;19.52;55.21;101038.16;4978786;28;20124;-66
2022/06/23 02:57:10;;;;;;;13.63;8.60;;;;;;;19.55;55.08;101036.72;4992722;28;20096;-66
2022/06/23 02:59:51;;;;;;;12.60;8.32;;;;;;;19.51;55.24;101021.59;4988191;28;20038;-66
2022/06/23 03:02:42;;;;;;;14.68;9.18;;;;;;;19.56;54.70;101024.31;4974514;28;20123;-67
2022/06/23 03:05:25;;;;;;;11.68;8.35;;;;;;;19.55;54.90;101017.00;4984205;28;20042;-66
2022/06/23 03:08:16;;;;;;;13.05;8.60;;;;;;;19.54;54.95;101018.16;4991188;28;20119;-66
2022/06/23 03:10:50;;;;;;;11.95;8.90;;;;;;;19.45;55.16;101011.56;4972367;28;20042;-66
2022/06/23 03:13:44;;;;;;;15.23;8.93;;;;;;;19.55;54.64;101011.38;4976131;28;20097;-66
2022/06/23 03:16:22;;;;;;;12.23;8.60;;;;;;;19.50;55.04;101005.84;4964109;28;20018;-67
2022/06/23 03:19:03;;;;;;;12.70;8.40;;;;;;;19.41;55.22;101007.69;4986594;28;20054;-66
2022/06/23 03:21:54;;;;;;;11.55;8.45;;;;;;;19.49;54.45;100998.53;4969175;28;20042;-65
2022/06/23 03:24:28;;;;;;;11.57;8.38;;;;;;;19.40;55.23;101006.03;4975735;28;20066;-65
2022/06/23 03:27:00;;;;;;;15.55;8.95;;;;;;;19.34;55.36;101002.47;4985156;28;20030;-65
2022/06/23 03:29:32;;;;;;;;;;;;;;;19.61;53.34;100999.75;4974942;28;20038;-66
2022/06/23 03:32:03;;;;;;;12.25;8.85;;;;;;;19.41;55.07;101002.06;4980789;28;20259;-65
2022/06/23 03:34:35;;;;;;;15.18;9.23;;;;;;;19.31;55.38;101015.19;4981902;28;20037;-65
2022/06/23 03:37:22;;;;;;;13.45;8.75;;;;;;;19.31;54.90;101015.19;4977674;28;20049;-66
2022/06/23 03:43:10;;;;;;;14.68;9.60;;;;;;;19.23;55.53;101018.69;4982639;28;20057;-67
2022/06/23 03:45:41;;;;;;;24.52;12.98;;;;;;;19.21;55.70;101028.56;4987589;28;20022;-66
2022/06/23 03:48:22;;;;;;;14.07;9.75;;;;;;;19.18;55.55;101024.41;4965076;28;20023;-66
2022/06/23 03:50:58;;;;;;;16.73;10.02;;;;;;;19.10;55.73;101014.69;4992170;28;20046;-66
2022/06/23 03:53:37;;;;;;;12.43;8.88;;;;;;;19.12;55.52;101023.66;4979973;28;20035;-66
2022/06/23 03:56:07;;;;;;;16.40;9.50;;;;;;;19.07;56.07;101025.72;4974592;28;20026;-66
2022/06/23 03:58:40;;;;;;;15.98;9.43;;;;;;;19.10;55.83;101023.13;4979373;28;20048;-66
2022/06/23 04:01:11;;;;;;;14.00;9.15;;;;;;;19.02;56.14;101022.97;4985808;28;20035;-66
2022/06/23 04:03:48;;;;;;;12.48;9.00;;;;;;;19.06;55.87;101022.09;4989116;28;20042;-66
2022/06/23 04:06:22;;;;;;;13.38;8.43;;;;;;;19.09;55.43;101018.63;4991734;28;20026;-66
2022/06/23 04:09:03;;;;;;;15.20;8.88;;;;;;;19.07;55.41;101022.91;4987025;28;20018;-65
2022/06/23 04:11:44;;;;;;;13.50;8.38;;;;;;;19.07;55.55;101031.34;4974530;28;20023;-65
2022/06/23 04:14:19;;;;;;;14.57;8.95;;;;;;;19.10;55.46;101019.50;4972352;28;20033;-65
2022/06/23 04:16:48;;;;;;;18.95;9.15;;;;;;;19.10;55.15;101014.69;4984178;28;20031;-65
2022/06/23 04:19:21;;;;;;;12.15;8.77;;;;;;;19.12;54.83;101005.94;4986639;28;20036;-65
2022/06/23 04:21:49;;;;;;;10.38;8.50;;;;;;;19.11;55.28;101004.28;4989694;28;20493;-66
2022/06/23 04:24:20;;;;;;;13.88;9.00;;;;;;;19.12;54.69;100998.31;4986905;28;20030;-65
2022/06/23 04:26:51;;;;;;;12.27;8.30;;;;;;;19.09;54.75;100995.28;4969337;28;20027;-66
2022/06/23 04:29:37;;;;;;;13.18;8.45;;;;;;;19.16;54.50;100992.94;4988632;28;20022;-65
2022/06/23 04:32:10;;;;;;;13.23;9.18;;;;;;;19.10;54.95;100999.81;4976409;28;20038;-66
2022/06/23 04:34:47;;;;;;;18.48;9.10;;;;;;;19.10;54.72;101002.63;4993495;28;20081;-66
2022/06/23 04:37:26;;;;;;;13.93;8.70;;;;;;;19.03;54.89;101021.84;4989258;28;20037;-66
2022/06/23 04:40:03;;;;;;;18.90;8.73;;;;;;;19.04;54.84;101026.34;4993405;28;20026;-66
2022/06/23 04:42:28;;;;;;;12.95;8.93;;;;;;;19.07;54.83;101022.91;4983835;28;20041;-66
2022/06/23 04:45:17;;;;;;;12.07;8.77;;;;;;;19.07;54.75;101017.28;4981295;28;20026;-66
2022/06/23 04:47:44;;;;;;;12.18;8.68;;;;;;;19.06;54.51;101024.91;4974311;28;20479;-65
2022/06/23 04:50:14;;;;;;;10.15;8.23;;;;;;;19.05;54.38;101022.38;4987961;28;20514;-66
2022/06/23 04:52:47;;;;;;;12.10;7.88;;;;;;;19.12;54.15;101017.19;4978340;28;20034;-66
2022/06/23 04:55:21;;;;;;;14.65;8.43;;;;;;;19.12;53.88;101006.78;4986944;28;20027;-65
2022/06/23 04:57:49;;;;;;;12.02;8.68;;;;;;;19.15;54.02;101010.13;4985749;28;20035;-66
2022/06/23 05:00:28;;;;;;;10.73;8.32;;;;;;;19.20;54.34;101008.06;4991751;28;20027;-66
2022/06/23 05:02:58;;;;;;;10.32;8.65;;;;;;;19.20;54.03;101008.06;4982041;28;20030;-66
2022/06/23 05:05:29;;;;;;;13.98;7.95;;;;;;;19.26;53.92;101020.06;4976575;28;20776;-66
2022/06/23 05:08:07;;;;;;;9.43;8.18;;;;;;;19.28;53.85;101024.22;4982485;28;20072;-65
2022/06/23 05:10:51;;;;;;;11.32;8.15;;;;;;;19.36;53.39;101015.06;4985499;28;20042;-65
2022/06/23 05:13:36;;;;;;;16.92;8.98;;;;;;;19.33;53.89;101018.50;4983799;28;20089;-66
2022/06/23 05:16:08;;;;;;;10.43;8.05;;;;;;;19.35;53.77;101016.22;4968845;28;20118;-65
2022/06/23 05:18:41;;;;;;;15.85;8.23;;;;;;;19.35;53.62;101021.03;4988023;28;20125;-65
2022/06/23 05:21:13;;;;;;;9.63;7.50;;;;;;;19.43;53.39;101016.69;4988838;28;20038;-65
2022/06/23 05:23:49;;;;;;;11.35;8.27;;;;;;;19.46;53.23;101016.06;4974380;28;20034;-66
2022/06/23 05:26:26;;;;;;;11.50;8.48;;;;;;;19.50;53.16;101019.94;4979809;28;20042;-65
2022/06/23 05:28:58;;;;;;;14.20;8.30;;;;;;;19.43;53.21;101009.06;4972910;28;20106;-65
2022/06/23 05:31:32;;;;;;;8.38;4.40;;;;;;;19.61;53.51;101016.66;4972372;28;20037;-65
2022/06/23 05:34:08;;;;;;;11.27;5.65;;;;;;;19.71;53.06;101017.59;4969823;28;20027;-63
2022/06/23 05:36:44;;;;;;;10.20;7.35;;;;;;;19.77;52.70;101008.75;4977475;28;20093;-64
2022/06/23 05:39:16;;;;;;;7.03;5.15;;;;;;;19.89;53.00;101029.94;4972847;28;20066;-64
2022/06/23 05:41:46;;;;;;;5.47;4.72;;;;;;;19.97;52.82;101018.78;4979003;28;20045;-64
2022/06/23 05:44:23;;;;;;;6.78;4.80;;;;;;;20.07;52.55;101014.91;4979063;28;20454;-64
2022/06/23 05:46:50;;;;;;;7.93;5.00;;;;;;;20.13;52.20;101019.28;4984438;28;20136;-64
2022/06/23 05:49:30;;;;;;;6.32;4.75;;;;;;;20.23;51.96;101016.25;4978512;28;20109;-64
2022/06/23 05:52:04;;;;;;;9.18;7.43;;;;;;;20.24;52.06;101012.31;4956822;28;20066;-64
2022/06/23 05:54:53;;;;;;;7.45;4.97;;;;;;;20.38;51.88;101019.91;4955489;28;20030;-65
2022/06/23 05:57:53;;;;;;;12.18;5.95;;;;;;;20.47;52.07;101012.34;4955350;28;20039;-64
2022/06/23 06:00:24;;;;;;;8.10;5.57;;;;;;;20.43;51.11;101016.97;4948026;28;20110;-64
2022/06/23 06:03:02;;;;;;;7.18;4.80;;;;;;;20.55;51.90;101028.56;4961404;28;20439;-64
2022/06/23 06:05:36;;;;;;;6.15;4.78;;;;;;;20.58;51.25;101020.31;4964690;28;20027;-64
2022/06/23 06:08:06;;;;;;;5.97;4.45;;;;;;;20.64;51.11;101017.38;4956328;28;20062;-64
2022/06/23 06:10:34;;;;;;;7.78;5.10;;;;;;;20.67;50.19;101017.59;4958686;28;20042;-64
2022/06/23 06:13:03;;;;;;;7.68;4.18;;;;;;;20.75;49.99;101018.78;4953764;28;20054;-64
2022/06/23 06:15:32;;;;;;;6.63;4.32;;;;;;;20.81;49.92;101014.72;4959736;28;20490;-64
2022/06/23 06:18:21;;;;;;;11.93;6.22;;;;;;;20.85;50.14;101021.38;4956787;28;20035;-64
2022/06/23 06:20:47;;;;;;;8.60;5.10;;;;;;;20.88;49.42;101011.47;4954899;28;20039;-65
2022/06/23 06:23:33;;;;;;;9.65;4.70;;;;;;;20.97;49.59;101009.53;4967862;28;20136;-64
2022/06/23 06:25:59;;;;;;;7.70;4.03;;;;;;;21.02;49.29;101003.75;4964121;28;20023;-64
2022/06/23 06:28:29;;;;;;;9.60;4.45;;;;;;;21.08;49.99;101010.97;4960224;28;20034;-65
2022/06/23 06:31:29;;;;;;;8.23;4.53;;;;;;;21.15;49.87;101011.34;4957431;28;20022;-65
2022/06/23 06:34:19;;;;;;;11.38;4.68;;;;;;;21.22;49.53;101020.22;4965382;28;20426;-65
2022/06/23 06:36:52;;;;;;;11.10;4.75;;;;;;;21.26;49.30;101024.06;4966629;28;20023;-66
2022/06/23 06:39:24;;;;;;;9.32;5.20;;;;;;;21.31;49.46;101020.28;4942273;28;20036;-66
2022/06/23 06:41:56;;;;;;;10.43;5.60;;;;;;;21.35;49.23;101021.31;4950752;28;20027;-65
2022/06/23 06:44:22;;;;;;;6.57;5.13;;;;;;;21.41;48.90;101014.38;4960797;28;20117;-67
2022/06/23 06:46:47;;;;;;;8.45;4.90;;;;;;;21.41;49.01;101020.03;4943507;28;20032;-66
2022/06/23 06:49:17;;;;;;;7.85;5.20;;;;;;;21.48;49.27;101013.91;4947367;28;20046;-68
2022/06/23 06:51:44;;;;;;;10.05;5.25;;;;;;;21.54;48.93;101010.66;4948700;28;20075;-66
2022/06/23 06:54:17;;;;;;;8.65;5.90;;;;;;;21.62;49.09;101009.03;4949759;28;20050;-66
2022/06/23 06:56:49;;;;;;;8.00;5.03;;;;;;;21.67;49.17;101010.88;4956096;28;20038;-66
2022/06/23 06:59:28;;;;;;;9.07;4.85;;;;;;;21.78;49.18;101023.56;4958532;28;20511;-66
2022/06/23 07:01:59;;;;;;;8.95;4.95;;;;;;;21.82;48.84;101027.41;4960057;28;20023;-66
2022/06/23 07:04:38;;;;;;;8.77;5.45;;;;;;;21.90;49.03;101028.63;4955888;28;20042;-67
2022/06/23 07:07:08;;;;;;;10.40;4.80;;;;;;;21.93;48.96;101027.94;4957107;28;20064;-66
2022/06/23 07:09:42;;;;;;;12.75;5.43;;;;;;;21.99;49.13;101029.47;4954353;28;20042;-66
2022/06/23 07:12:19;;;;;;;8.93;5.60;;;;;;;22.02;48.85;101035.31;4965653;28;20364;-66
2022/06/23 07:15:00;;;;;;;9.07;6.30;;;;;;;22.09;48.77;101029.19;4946392;28;20170;-66
2022/06/23 07:17:37;;;;;;;12.43;5.65;;;;;;;22.15;48.71;101032.72;4948012;28;20027;-66
2022/06/23 07:20:20;;;;;;;10.20;5.40;;;;;;;22.29;48.66;101022.97;4956641;28;20181;-65
2022/06/23 07:23:01;;;;;;;14.27;6.00;;;;;;;22.33;48.88;101013.84;4957017;28;20062;-67
2022/06/23 07:25:32;;;;;;;10.93;5.68;;;;;;;22.43;49.10;101010.69;4950281;28;20042;-66
2022/06/23 07:28:00;;;;;;;8.20;5.18;;;;;;;22.54;49.40;101006.38;4951906;28;20027;-66
2022/06/23 07:30:35;;;;;;;10.05;5.32;;;;;;;22.63;49.25;101010.06;4957318;28;20490;-66
2022/06/23 07:33:22;;;;;;;9.57;5.75;;;;;;;22.70;49.11;101010.41;4952535;28;20038;-67
2022/06/23 07:36:01;;;;;;;8.70;6.00;;;;;;;22.81;49.32;101010.09;4953255;28;20105;-67
2022/06/23 07:38:34;;;;;;;9.20;6.18;;;;;;;22.85;50.31;101005.44;4958247;28;20074;-68
2022/06/23 07:41:19;;;;;;;9.43;6.18;;;;;;;22.93;50.00;101002.63;4950539;28;20027;-66
2022/06/23 07:44:14;;;;;;;11.30;7.43;;;;;;;22.99;50.26;101008.94;4960858;28;20145;-66
2022/06/23 07:46:39;;;;;;;13.02;7.05;;;;;;;23.12;51.01;101004.28;4950820;28;20054;-66
2022/06/23 07:49:06;;;;;;;14.40;6.45;;;;;;;23.24;51.10;101002.44;4954080;28;20475;-65
2022/06/23 07:51:32;;;;;;;13.45;6.82;;;;;;;23.32;51.18;100997.94;4970045;28;20558;-66
2022/06/23 07:53:58;;;;;;;12.02;7.10;;;;;;;23.45;51.09;101015.88;4979929;28;20022;-64
2022/06/23 07:56:28;;;;;;;8.13;5.90;;;;;;;23.50;50.90;101004.38;4991427;28;20052;-65
2022/06/23 07:58:58;;;;;;;8.38;6.25;;;;;;;23.62;51.08;101007.38;4979960;28;20026;-65
2022/06/23 08:01:29;;;;;;;10.52;6.80;;;;;;;23.65;50.60;101009.50;4971689;28;20109;-64
2022/06/23 08:04:16;;;;;;;12.68;7.50;;;;;;;23.71;51.61;101005.34;4971753;28;20045;-65
2022/06/23 08:06:42;;;;;;;11.98;7.45;;;;;;;23.72;51.54;101004.19;4969080;28;20045;-66
2022/06/23 08:09:25;;;;;;;11.38;7.10;;;;;;;23.82;51.25;100997.31;4982436;28;20037;-66
2022/06/23 08:14:43;;;;;;;12.18;6.57;;;;;;;23.98;51.12;101008.94;4968508;28;20297;-66
2022/06/23 08:17:15;;;;;;;12.10;6.32;;;;;;;24.05;51.46;101005.56;4963261;28;20484;-66
2022/06/23 08:19:54;;;;;;;10.82;6.00;;;;;;;24.08;51.40;100996.38;4962997;28;20413;-66
2022/06/23 08:22:23;;;;;;;10.35;6.55;;;;;;;24.15;52.51;100994.66;4977068;28;20037;-66
2022/06/23 08:24:52;;;;;;;7.93;5.25;;;;;;;24.23;51.59;101001.47;4971728;28;20117;-66
2022/06/23 08:27:24;;;;;;;158.73;16.05;;;;;;;24.32;51.38;100992.91;4982782;28;20489;-66
2022/06/23 08:30:12;;;;;;;50.20;8.05;;;;;;;24.46;51.20;100994.34;4980997;28;20565;-66
2022/06/23 08:32:40;;;;;;;59.95;9.13;;;;;;;24.52;51.02;100994.97;4970273;28;20458;-66
2022/06/23 08:35:08;;;;;;;12.50;6.18;;;;;;;24.55;51.17;100993.44;4968938;28;20026;-67
2022/06/23 08:37:43;;;;;;;10.85;5.22;;;;;;;24.61;50.49;100986.41;4964581;28;20030;-66
2022/06/23 08:40:46;;;;;;;14.52;5.05;;;;;;;24.65;51.23;100993.88;4970733;28;20077;-65
2022/06/23 08:43:52;;;;;;;7.53;4.20;;;;;;;24.76;50.40;100994.31;4975378;28;20128;-66
2022/06/23 08:46:32;;;;;;;9.50;4.05;;;;;;;24.85;49.91;100997.06;4977780;28;20022;-66
2022/06/23 08:49:16;;;;;;;12.45;5.10;;;;;;;24.90;49.81;100994.03;4990164;28;20470;-66
2022/06/23 08:51:58;;;;;;;12.90;5.25;;;;;;;24.92;50.22;100991.69;4992607;28;20050;-66
2022/06/23 08:54:42;;;;;;;;;;;;;;;24.91;50.14;100995.66;4990609;28;20030;-66
2022/06/23 08:57:17;;;;;;;15.20;4.65;;;;;;;25.00;50.06;100992.78;4991647;28;20359;-66
2022/06/23 09:00:00;;;;;;;10.98;4.82;;;;;;;25.10;50.25;100986.69;4991175;28;20034;-66
2022/06/23 09:02:37;;;;;;;14.43;4.80;;;;;;;25.18;49.95;100983.75;4987313;28;20482;-66
2022/06/23 09:05:22;;;;;;;8.30;3.83;;;;;;;25.17;50.65;100984.94;4977930;28;20031;-66
2022/06/23 09:08:21;;;;;;;7.15;3.78;;;;;;;25.27;49.86;100991.38;4990198;28;20019;-66
2022/06/23 09:11:01;;;;;;;10.05;3.78;;;;;;;25.31;50.06;100987.50;4991199;28;20039;-66
2022/06/23 09:13:45;;;;;;;10.68;3.72;;;;;;;25.40;49.52;100988.22;4990735;28;20478;-66
2022/06/23 09:16:28;;;;;;;12.73;4.15;;;;;;;25.46;49.53;100981.13;4978852;28;20775;-66
2022/06/23 09:19:18;;;;;;;14.88;4.57;;;;;;;25.49;49.75;100985.28;4992784;28;20034;-66
2022/06/23 09:22:21;;;;;;;11.93;4.50;;;;;;;25.57;49.98;100980.69;4989953;28;20060;-66
2022/06/23 09:24:52;;;;;;;6.32;3.50;;;;;;;25.66;49.62;100987.94;4991700;28;20041;-66
2022/06/23 09:27:33;;;;;;;9.65;3.33;;;;;;;25.71;49.29;100976.34;4979047;28;20038;-66
2022/06/23 09:30:20;;;;;;;8.43;3.70;;;;;;;25.74;49.58;100976.81;4977894;28;20062;-66
2022/06/23 09:33:09;;;;;;;10.85;4.03;;;;;;;25.89;49.38;100971.28;4994583;28;20386;-66
2022/06/23 09:36:06;;;;;;;8.82;3.90;;;;;;;25.97;49.81;100968.69;4994054;28;20061;-66
2022/06/23 09:39:06;;;;;;;8.25;3.90;;;;;;;25.94;49.40;100959.69;4989734;28;20607;-66
2022/06/23 09:42:03;;;;;;;10.18;4.00;;;;;;;26.02;49.70;100966.44;4995888;28;20595;-67
2022/06/23 09:44:47;;;;;;;10.60;4.13;;;;;;;26.02;50.32;100963.59;4968249;28;20133;-66
2022/06/23 09:47:38;;;;;;;10.40;3.88;;;;;;;26.05;50.14;100962.88;4988385;28;20030;-66
2022/06/23 09:50:22;;;;;;;8.25;4.05;;;;;;;26.10;50.55;100962.66;4963445;28;20121;-66
2022/06/23 09:53:10;;;;;;;14.23;4.47;;;;;;;26.10;50.65;100967.53;4987581;28;20034;-66
2022/06/23 09:56:21;;;;;;;9.23;4.15;;;;;;;26.01;50.97;100964.78;4976532;28;20026;-67
2022/06/23 09:59:13;;;;;;;13.48;4.60;;;;;;;25.98;51.03;100956.13;4974529;28;20138;-66
2022/06/23 10:02:19;;;;;;;11.65;4.53;;;;;;;26.06;51.33;100969.41;4968852;28;20030;-66
2022/06/23 10:04:47;;;;;;;10.70;4.35;;;;;;;26.16;50.80;100961.22;4951701;28;20466;-66
2022/06/23 10:07:28;;;;;;;10.05;4.45;;;;;;;26.22;50.47;100961.00;4993850;28;20030;-66
2022/06/23 10:10:06;;;;;;;10.95;4.70;;;;;;;26.31;50.56;100959.66;4988382;28;20042;-66
2022/06/23 10:13:12;;;;;;;10.25;5.50;;;;;;;26.23;50.83;100965.50;4968501;28;20027;-66
2022/06/23 10:15:55;;;;;;;16.63;5.35;;;;;;;26.41;50.24;100961.22;4970712;28;20159;-66
2022/06/23 10:18:39;;;;;;;12.25;5.13;;;;;;;26.46;50.22;100957.31;4990318;28;20052;-66
2022/06/23 10:21:38;;;;;;;8.98;4.80;;;;;;;26.59;50.54;100953.25;4993519;28;20137;-66
2022/06/23 10:24:19;;;;;;;13.05;5.22;;;;;;;26.67;49.97;100955.94;4957577;28;20052;-65
2022/06/23 10:27:15;;;;;;;15.82;5.18;;;;;;;26.59;49.93;100950.41;4992730;28;20019;-66
2022/06/23 10:30:02;;;;;;;9.85;5.13;;;;;;;26.61;50.20;100954.56;4978634;28;20580;-66
2022/06/23 10:32:53;;;;;;;9.73;4.40;;;;;;;26.60;50.01;100947.19;4988530;28;20030;-66
2022/06/23 10:35:27;;;;;;;10.27;4.80;;;;;;;26.65;49.36;100941.25;4993098;28;20070;-66
2022/06/23 10:38:05;;;;;;;13.50;4.72;;;;;;;26.79;49.72;100943.69;4993190;28;20076;-67
2022/06/23 10:40:49;;;;;;;11.50;3.92;;;;;;;26.92;48.80;100942.47;4992111;28;20030;-66
2022/06/23 10:43:22;;;;;;;11.65;4.20;;;;;;;26.99;48.39;100936.13;4992781;28;20034;-66
2022/06/23 10:46:00;;;;;;;9.70;4.13;;;;;;;26.99;48.28;100938.97;4993169;28;20038;-66
2022/06/23 10:49:10;;;;;;;10.02;4.30;;;;;;;27.09;48.02;100934.78;4990299;28;20030;-66
2022/06/23 10:52:10;;;;;;;13.15;3.83;;;;;;;27.15;47.45;100922.78;4986598;28;20046;-66
2022/06/23 10:54:57;;;;;;;7.93;3.50;;;;;;;27.19;46.16;100924.91;4991637;28;20026;-66
2022/06/23 10:57:40;;;;;;;11.68;4.05;;;;;;;27.32;46.28;100926.53;4986636;28;20030;-66
2022/06/23 11:00:15;;;;;;;13.68;4.13;;;;;;;27.37;46.56;100929.09;4990420;28;20513;-66
2022/06/23 11:03:08;;;;;;;9.93;4.03;;;;;;;27.30;47.24;100921.16;4991836;28;20026;-66
2022/06/23 11:05:58;;;;;;;8.48;4.18;;;;;;;27.45;47.07;100924.41;4991110;28;20035;-66
2022/06/23 11:09:01;;;;;;;10.55;4.32;;;;;;;27.46;47.03;100911.81;4991499;28;20165;-65
2022/06/23 11:11:26;;;;;;;9.18;3.95;;;;;;;27.64;46.99;100915.97;4975144;28;20076;-66
2022/06/23 11:14:05;;;;;;;10.10;4.05;;;;;;;27.64;46.04;100922.50;4983985;28;20057;-66
2022/06/23 11:16:43;;;;;;;12.25;4.75;;;;;;;27.65;46.19;100915.59;4975856;28;20043;-66
2022/06/23 11:19:34;;;;;;;11.65;4.43;;;;;;;27.73;46.59;100912.91;4969209;28;20045;-66
2022/06/23 11:22:37;;;;;;;11.20;4.60;;;;;;;27.75;46.85;100910.56;4971127;28;20508;-66
2022/06/23 11:25:21;;;;;;;10.27;4.22;;;;;;;27.80;45.55;100918.84;4968720;28;20126;-66
2022/06/23 11:28:14;;;;;;;8.18;4.03;;;;;;;27.90;45.61;100912.56;4976134;28;20058;-71
2022/06/23 11:31:25;;;;;;;12.27;4.22;;;;;;;27.81;45.85;100914.78;4982202;28;20117;-69
2022/06/23 11:34:17;;;;;;;11.38;4.32;;;;;;;27.93;45.70;100914.69;4971690;28;20085;-67
2022/06/23 11:37:04;;;;;;;9.32;4.18;;;;;;;27.89;45.75;100910.91;4978401;28;20039;-68
2022/06/23 11:40:00;;;;;;;10.48;4.13;;;;;;;27.98;46.10;100920.13;4971317;28;20681;-68
2022/06/23 11:43:02;;;;;;;9.75;4.05;;;;;;;27.92;45.64;100918.75;4966809;28;20039;-67
2022/06/23 11:45:49;;;;;;;15.48;5.00;;;;;;;28.12;44.90;100917.59;4967936;28;20038;-66
2022/06/23 11:48:48;;;;;;;14.68;4.43;;;;;;;28.04;44.96;100907.22;4971836;28;20505;-66
2022/06/23 11:51:42;;;;;;;10.07;4.03;;;;;;;27.99;45.10;100901.81;4967031;28;20055;-66
2022/06/23 11:54:35;;;;;;;9.40;4.43;;;;;;;28.06;44.56;100904.81;4966260;28;20045;-66
2022/06/23 11:57:00;;;;;;;12.00;4.75;;;;;;;28.06;44.63;100889.72;5003467;28;20042;-66
2022/06/23 12:00:04;;;;;;;13.70;4.63;;;;;;;28.09;44.85;100892.66;4988904;28;20035;-66
2022/06/23 12:02:36;;;;;;;9.95;4.45;;;;;;;28.12;44.97;100889.06;4967373;28;20030;-66
2022/06/23 12:05:41;;;;;;;9.82;4.47;;;;;;;28.15;44.90;100896.06;4990774;28;20030;-66
2022/06/23 12:08:17;;;;;;;8.48;4.03;;;;;;;28.24;45.09;100884.44;4977096;28;20019;-66
2022/06/23 12:10:42;;;;;;;13.18;4.32;;;;;;;28.27;44.52;100886.53;4991505;28;20030;-66
2022/06/23 12:13:08;;;;;;;13.40;4.95;;;;;;;28.19;45.01;100896.97;4989319;28;20030;-66
2022/06/23 12:15:40;;;;;;;12.50;4.80;;;;;;;28.10;44.50;100890.66;4991345;28;20022;-66
2022/06/23 12:18:08;;;;;;;;;;;;;;;28.04;45.40;100898.66;4991344;28;20065;-66
2022/06/23 12:20:43;;;;;;;13.77;4.63;;;;;;;28.03;45.13;100888.44;4991201;28;20401;-66
2022/06/23 12:23:19;;;;;;;10.38;4.22;;;;;;;28.17;45.17;100892.81;4984142;28;20118;-66